Time;durP1;ratioP1;P1;durP2;ratioP2;P2;SDS_P1;SDS_P2;PMS_P1;PMS_P2;Temp;Humidity;BMP_temperature;BMP_pressure;BME280_temperature;BME280_humidity;BME280_pressure;Samples;Min_cycle;Max_cycle;Signal;HPM_P1;HPM_P2
2021/12/11 00:00:15;;;;;;;0.40;0.40;;;4.10;99.90;;;;;;4870064;29;20245;-80
2021/12/11 00:02:45;;;;;;;0.70;0.67;;;4.10;99.90;;;;;;4876341;29;20231;-80
2021/12/11 00:05:15;;;;;;;0.70;0.70;;;4.00;99.90;;;;;;4869792;29;20174;-80
2021/12/11 00:07:42;;;;;;;0.70;0.70;;;4.00;99.90;;;;;;4877164;29;20201;-80
2021/12/11 00:10:21;;;;;;;0.43;0.43;;;4.10;99.90;;;;;;4874023;29;20195;-80
2021/12/11 00:12:54;;;;;;;0.40;0.40;;;4.00;99.90;;;;;;4873703;29;20190;-80
2021/12/11 00:15:25;;;;;;;0.30;0.30;;;4.00;99.90;;;;;;4873427;29;20859;-80
2021/12/11 00:17:58;;;;;;;0.40;0.40;;;4.00;99.90;;;;;;4867242;29;20244;-81
2021/12/11 00:20:29;;;;;;;0.50;0.50;;;4.00;99.90;;;;;;4870247;29;20185;-80
2021/12/11 00:22:56;;;;;;;0.60;0.60;;;3.90;99.90;;;;;;4867060;29;20605;-82
2021/12/11 00:25:22;;;;;;;0.60;0.60;;;3.90;99.90;;;;;;4870871;29;20278;-80
2021/12/11 00:27:50;;;;;;;0.43;0.43;;;3.90;99.90;;;;;;4872539;29;20291;-80
2021/12/11 00:30:27;;;;;;;0.10;0.10;;;3.90;99.90;;;;;;4874502;29;20192;-80
2021/12/11 00:33:09;;;;;;;0.97;0.77;;;3.90;99.90;;;;;;4870173;29;20187;-80
2021/12/11 00:35:37;;;;;;;0.80;0.60;;;4.00;99.90;;;;;;4877193;29;20209;-80
2021/12/11 00:38:08;;;;;;;1.23;0.40;;;4.00;99.90;;;;;;4868929;29;20197;-80
2021/12/11 00:40:34;;;;;;;3.83;1.00;;;4.00;99.90;;;;;;4875114;29;20187;-80
2021/12/11 00:43:04;;;;;;;1.20;0.70;;;4.00;99.90;;;;;;4874571;29;20186;-80
2021/12/11 00:45:38;;;;;;;0.63;0.63;;;4.10;99.90;;;;;;4878897;29;20670;-80
2021/12/11 00:48:11;;;;;;;0.40;0.33;;;4.00;99.90;;;;;;4869401;29;20184;-80
2021/12/11 00:50:52;;;;;;;0.57;0.57;;;4.20;99.90;;;;;;4872397;29;20623;-80
2021/12/11 00:53:21;;;;;;;0.33;0.33;;;4.10;99.90;;;;;;4873780;29;20239;-80
2021/12/11 00:55:51;;;;;;;0.17;0.17;;;4.00;99.90;;;;;;4876716;29;20220;-80
2021/12/11 00:58:33;;;;;;;0.50;0.50;;;3.90;99.90;;;;;;4875106;29;20276;-79
2021/12/11 01:01:08;;;;;;;0.90;0.53;;;3.90;99.90;;;;;;4869128;29;20181;-80
2021/12/11 01:03:36;;;;;;;0.17;0.17;;;3.80;99.90;;;;;;4878163;29;20226;-81
2021/12/11 01:06:09;;;;;;;0.30;0.27;;;3.90;99.90;;;;;;4880671;29;20555;-80
2021/12/11 01:08:39;;;;;;;0.60;0.20;;;4.00;99.90;;;;;;4868295;29;20559;-80
2021/12/11 01:11:31;;;;;;;0.30;0.30;;;3.80;99.90;;;;;;4879350;29;20183;-80
2021/12/11 01:14:23;;;;;;;1.60;0.17;;;3.90;99.90;;;;;;4871920;29;20195;-80
2021/12/11 01:17:00;;;;;;;0.77;0.50;;;4.00;99.90;;;;;;4876033;29;20703;-80
2021/12/11 01:19:28;;;;;;;0.57;0.57;;;4.00;99.90;;;;;;4880076;29;20673;-80
2021/12/11 01:21:59;;;;;;;1.17;0.87;;;4.10;99.90;;;;;;4873452;29;20175;-80
2021/12/11 01:24:43;;;;;;;0.57;0.57;;;4.10;99.90;;;;;;4878207;29;20217;-80
2021/12/11 01:27:13;;;;;;;0.30;0.23;;;4.00;99.90;;;;;;4879838;29;20203;-80
2021/12/11 01:29:39;;;;;;;0.10;0.10;;;4.10;99.90;;;;;;4875706;29;20279;-80
2021/12/11 01:32:06;;;;;;;0.20;0.20;;;4.10;99.90;;;;;;4879803;29;20189;-81
2021/12/11 01:34:34;;;;;;;0.27;0.27;;;4.00;99.90;;;;;;4873279;29;20652;-80
2021/12/11 01:37:00;;;;;;;0.20;0.20;;;4.10;99.90;;;;;;4877896;29;20211;-80
2021/12/11 01:39:30;;;;;;;3.40;0.60;;;4.10;99.90;;;;;;4877280;29;20236;-80
2021/12/11 01:41:57;;;;;;;0.23;0.23;;;4.10;99.90;;;;;;4876173;29;20183;-81
2021/12/11 01:44:34;;;;;;;0.30;0.30;;;4.10;99.90;;;;;;4868165;29;20273;-80
2021/12/11 01:47:10;;;;;;;0.40;0.40;;;4.10;99.90;;;;;;4875815;29;20297;-81
2021/12/11 01:49:38;;;;;;;0.37;0.37;;;4.20;99.90;;;;;;4869873;29;20188;-80
2021/12/11 01:52:29;;;;;;;0.43;0.43;;;4.20;99.90;;;;;;4871708;29;20644;-81
2021/12/11 01:54:56;;;;;;;1.23;0.40;;;4.30;99.90;;;;;;4875000;29;20576;-80
2021/12/11 01:57:27;;;;;;;0.40;0.40;;;4.10;99.90;;;;;;4867509;29;20207;-80
2021/12/11 01:59:58;;;;;;;0.17;0.17;;;4.10;99.90;;;;;;4876212;29;20678;-80
2021/12/11 02:02:34;;;;;;;0.30;0.30;;;4.10;99.90;;;;;;4872407;29;20203;-81
2021/12/11 02:05:02;;;;;;;0.37;0.37;;;4.10;99.90;;;;;;4877232;29;20234;-80
2021/12/11 02:07:41;;;;;;;3.40;3.10;;;4.00;99.90;;;;;;4877507;29;20619;-80
2021/12/11 02:10:19;;;;;;;0.77;0.50;;;3.90;99.90;;;;;;4871315;29;20194;-80
2021/12/11 02:12:44;;;;;;;0.43;0.30;;;3.90;99.90;;;;;;4876755;29;20213;-81
2021/12/11 02:15:15;;;;;;;0.10;0.10;;;3.90;99.90;;;;;;4873283;29;20206;-80
2021/12/11 02:17:51;;;;;;;0.63;0.47;;;3.80;99.90;;;;;;4878629;29;20248;-80
2021/12/11 02:20:28;;;;;;;0.53;0.53;;;3.90;99.90;;;;;;4875809;29;20191;-80
2021/12/11 02:22:54;;;;;;;0.20;0.20;;;4.00;99.90;;;;;;4872285;29;20178;-81
2021/12/11 02:25:28;;;;;;;0.30;0.30;;;4.00;99.90;;;;;;4874052;29;20567;-80
2021/12/11 02:27:59;;;;;;;0.10;0.10;;;3.90;99.90;;;;;;4873944;29;20205;-80
2021/12/11 02:30:36;;;;;;;0.50;0.50;;;3.90;99.90;;;;;;4872742;29;20190;-80
2021/12/11 02:33:08;;;;;;;0.33;0.30;;;3.80;99.90;;;;;;4864628;29;20195;-80
2021/12/11 02:35:43;;;;;;;0.10;0.10;;;3.90;99.90;;;;;;4872266;29;20223;-80
2021/12/11 02:38:28;;;;;;;1.90;0.60;;;4.00;99.90;;;;;;4874233;29;20185;-81
2021/12/11 02:41:02;;;;;;;0.33;0.33;;;3.90;99.90;;;;;;4868269;29;20661;-80
2021/12/11 02:43:38;;;;;;;1.77;0.40;;;4.00;99.90;;;;;;4876318;29;20327;-80
2021/12/11 02:46:13;;;;;;;0.67;0.30;;;3.90;99.90;;;;;;4878096;29;20205;-80
2021/12/11 02:49:05;;;;;;;1.50;0.43;;;3.90;99.90;;;;;;4872565;29;20273;-80
2021/12/11 02:51:39;;;;;;;0.83;0.50;;;3.80;99.90;;;;;;4877055;29;20202;-80
2021/12/11 02:54:14;;;;;;;0.20;0.20;;;3.90;99.90;;;;;;4869026;29;20186;-80
2021/12/11 02:56:45;;;;;;;0.37;0.37;;;3.90;99.90;;;;;;4873881;29;20206;-80
2021/12/11 02:59:15;;;;;;;0.50;0.30;;;3.90;99.90;;;;;;4871904;29;20550;-81
2021/12/11 03:01:50;;;;;;;0.47;0.47;;;3.90;99.90;;;;;;4868505;29;20762;-80
2021/12/11 03:04:29;;;;;;;0.20;0.20;;;4.00;99.90;;;;;;4865990;29;20196;-80
2021/12/11 03:06:55;;;;;;;0.27;0.27;;;4.10;99.90;;;;;;4869683;29;20208;-80
2021/12/11 03:09:32;;;;;;;1.13;1.03;;;4.10;99.90;;;;;;4874376;29;20264;-81
2021/12/11 03:12:03;;;;;;;0.10;0.10;;;4.00;99.90;;;;;;4874971;29;20283;-80
2021/12/11 03:14:29;;;;;;;0.97;0.83;;;4.20;99.90;;;;;;4874498;29;20205;-80
2021/12/11 03:16:56;;;;;;;0.37;0.30;;;4.10;99.90;;;;;;4868195;29;20218;-80
2021/12/11 03:19:25;;;;;;;0.60;0.60;;;4.10;99.90;;;;;;4878362;29;20186;-80
2021/12/11 03:21:53;;;;;;;0.37;0.37;;;4.20;99.90;;;;;;4873240;29;20552;-81
2021/12/11 03:24:19;;;;;;;1.30;1.20;;;4.20;99.90;;;;;;4877125;29;20659;-80
2021/12/11 03:26:48;;;;;;;0.90;0.60;;;4.20;99.90;;;;;;4876059;29;20684;-81
2021/12/11 03:29:14;;;;;;;1.83;0.87;;;4.00;99.90;;;;;;4873032;29;20274;-81
2021/12/11 03:31:41;;;;;;;0.30;0.30;;;3.90;99.90;;;;;;4870461;29;20183;-81
2021/12/11 03:34:11;;;;;;;0.27;0.27;;;3.90;99.90;;;;;;4870383;29;20182;-80
2021/12/11 03:36:38;;;;;;;0.80;0.60;;;4.00;99.90;;;;;;4871968;29;20271;-80
2021/12/11 03:39:17;;;;;;;1.57;0.97;;;4.00;99.90;;;;;;4871388;29;20213;-80
2021/12/11 03:41:45;;;;;;;2.57;1.13;;;4.00;99.90;;;;;;4869202;29;20192;-81
2021/12/11 03:44:11;;;;;;;0.43;0.43;;;4.00;99.90;;;;;;4878112;29;20179;-80
2021/12/11 03:46:38;;;;;;;1.73;0.80;;;4.00;99.90;;;;;;4873575;29;20211;-81
2021/12/11 03:49:10;;;;;;;3.20;0.57;;;4.10;99.90;;;;;;4870214;29;20227;-80
2021/12/11 03:51:38;;;;;;;0.70;0.70;;;4.00;99.90;;;;;;4874834;29;20185;-80
2021/12/11 03:54:08;;;;;;;0.63;0.63;;;3.80;99.90;;;;;;4877305;29;20181;-80
2021/12/11 03:56:35;;;;;;;0.80;0.60;;;3.70;99.90;;;;;;4866560;29;20216;-80
2021/12/11 03:59:09;;;;;;;0.70;0.70;;;3.60;99.90;;;;;;4860548;29;20183;-80
2021/12/11 04:01:41;;;;;;;0.93;0.93;;;3.60;99.90;;;;;;4875667;29;20549;-80
2021/12/11 04:04:13;;;;;;;0.97;0.90;;;3.70;99.90;;;;;;4875812;29;20201;-81
2021/12/11 04:06:38;;;;;;;0.30;0.30;;;3.70;99.90;;;;;;4869094;29;21091;-80
2021/12/11 04:09:09;;;;;;;0.53;0.53;;;3.80;99.90;;;;;;4865526;29;20273;-80
2021/12/11 04:11:36;;;;;;;0.30;0.30;;;3.80;99.90;;;;;;4872452;29;20686;-80
2021/12/11 04:14:12;;;;;;;0.83;0.83;;;3.80;99.90;;;;;;4870862;29;20185;-80
2021/12/11 04:16:39;;;;;;;0.30;0.30;;;3.80;99.90;;;;;;4868065;29;20222;-80
2021/12/11 04:19:06;;;;;;;1.27;0.97;;;3.80;99.90;;;;;;4870764;29;20178;-80
2021/12/11 04:21:32;;;;;;;0.33;0.33;;;3.80;99.90;;;;;;4874327;29;20181;-80
2021/12/11 04:23:58;;;;;;;0.47;0.33;;;3.80;99.90;;;;;;4869945;29;20261;-81
2021/12/11 04:26:23;;;;;;;0.10;0.10;;;3.80;99.90;;;;;;4864533;29;20303;-81
2021/12/11 04:28:49;;;;;;;0.77;0.77;;;3.70;99.90;;;;;;4866905;29;20189;-81
2021/12/11 04:31:20;;;;;;;0.27;0.27;;;3.70;99.90;;;;;;4863845;29;20645;-80
2021/12/11 04:33:49;;;;;;;0.20;0.20;;;3.70;99.90;;;;;;4876354;29;20186;-81
2021/12/11 04:36:19;;;;;;;0.73;0.73;;;3.60;99.90;;;;;;4871994;29;20222;-80
2021/12/11 04:38:45;;;;;;;0.87;0.70;;;3.60;99.90;;;;;;4866652;29;20182;-80
2021/12/11 04:41:16;;;;;;;0.50;0.50;;;3.50;99.90;;;;;;4861601;29;20177;-80
2021/12/11 04:43:43;;;;;;;0.57;0.27;;;3.50;99.90;;;;;;4876188;29;20666;-81
2021/12/11 04:46:10;;;;;;;0.73;0.60;;;3.50;99.90;;;;;;4872778;29;20254;-81
2021/12/11 04:48:55;;;;;;;0.23;0.23;;;3.40;99.90;;;;;;4874040;29;20229;-81
2021/12/11 04:51:31;;;;;;;0.13;0.13;;;3.40;99.90;;;;;;4869070;29;20680;-80
2021/12/11 04:59:39;;;;;;;0.70;0.33;;;3.40;99.90;;;;;;4873033;29;20192;-80
2021/12/11 05:02:43;;;;;;;0.53;0.53;;;3.40;99.90;;;;;;4874429;29;20545;-80
2021/12/11 05:10:23;;;;;;;0.83;0.80;;;3.20;99.90;;;;;;4871897;29;20195;-79
2021/12/11 05:12:54;;;;;;;0.57;0.40;;;3.20;99.90;;;;;;4864137;29;20553;-80
2021/12/11 05:15:29;;;;;;;0.87;0.87;;;3.00;99.90;;;;;;4865482;29;20217;-80
2021/12/11 05:17:56;;;;;;;0.40;0.40;;;2.90;99.90;;;;;;4874597;29;20217;-80
2021/12/11 05:20:25;;;;;;;0.63;0.63;;;2.80;99.90;;;;;;4879953;29;20238;-80
2021/12/11 05:22:51;;;;;;;1.40;0.50;;;2.90;99.90;;;;;;4872522;29;20196;-80
2021/12/11 05:25:16;;;;;;;0.30;0.30;;;2.80;99.90;;;;;;4870799;29;20276;-80
2021/12/11 05:27:45;;;;;;;0.43;0.43;;;2.80;99.90;;;;;;4872656;29;20209;-80
2021/12/11 05:30:34;;;;;;;1.43;0.53;;;2.80;99.90;;;;;;4876807;29;20192;-80
2021/12/11 05:33:00;;;;;;;0.80;0.40;;;2.60;99.90;;;;;;4878023;29;20196;-80
2021/12/11 05:35:32;;;;;;;1.03;0.60;;;2.50;99.90;;;;;;4876583;29;20205;-79
2021/12/11 05:37:59;;;;;;;1.90;0.40;;;2.50;99.90;;;;;;4871592;29;20681;-80
2021/12/11 05:40:26;;;;;;;0.90;0.73;;;2.40;99.90;;;;;;4866002;29;20243;-80
2021/12/11 05:42:53;;;;;;;0.70;0.70;;;2.40;99.90;;;;;;4872342;29;20191;-80
2021/12/11 05:45:19;;;;;;;0.60;0.60;;;2.50;99.90;;;;;;4875197;29;20272;-81
2021/12/11 05:47:45;;;;;;;0.30;0.30;;;2.40;99.90;;;;;;4872905;29;20373;-80
2021/12/11 05:50:20;;;;;;;1.57;0.47;;;2.50;99.90;;;;;;4875229;29;20197;-81
2021/12/11 05:52:48;;;;;;;0.57;0.57;;;2.60;99.90;;;;;;4875587;29;20226;-80
2021/12/11 05:55:16;;;;;;;0.33;0.33;;;2.60;99.90;;;;;;4870600;29;20209;-81
2021/12/11 05:57:50;;;;;;;1.73;1.20;;;2.60;99.90;;;;;;4873019;29;20221;-81
2021/12/11 06:00:17;;;;;;;0.50;0.50;;;2.70;99.90;;;;;;4874285;29;20244;-80
2021/12/11 06:02:43;;;;;;;0.80;0.30;;;2.60;99.90;;;;;;4870685;29;20193;-80
2021/12/11 06:05:09;;;;;;;0.87;0.80;;;2.50;99.90;;;;;;4874470;29;20187;-81
2021/12/11 06:07:35;;;;;;;0.87;0.70;;;2.60;99.90;;;;;;4874910;29;20216;-80
2021/12/11 06:10:08;;;;;;;0.37;0.23;;;2.70;99.90;;;;;;4872076;29;20215;-80
2021/12/11 06:12:34;;;;;;;0.70;0.70;;;2.60;99.90;;;;;;4869798;29;20200;-80
2021/12/11 06:15:01;;;;;;;0.80;0.80;;;2.50;99.90;;;;;;4871780;29;20243;-80
2021/12/11 06:17:29;;;;;;;0.73;0.33;;;2.40;99.90;;;;;;4872989;29;20239;-82
2021/12/11 06:19:59;;;;;;;1.40;0.73;;;2.40;99.90;;;;;;4866273;29;20643;-82
2021/12/11 06:22:28;;;;;;;0.50;0.50;;;2.50;99.90;;;;;;4876857;29;20565;-81
2021/12/11 06:24:56;;;;;;;1.43;1.37;;;2.50;99.90;;;;;;4875995;29;20592;-80
2021/12/11 06:27:23;;;;;;;0.40;0.40;;;2.50;99.90;;;;;;4871249;29;20216;-80
2021/12/11 06:29:49;;;;;;;0.50;0.40;;;2.50;99.90;;;;;;4879684;29;20199;-81
2021/12/11 06:32:15;;;;;;;0.60;0.60;;;2.60;99.90;;;;;;4878699;29;20291;-81
2021/12/11 06:34:41;;;;;;;0.73;0.73;;;2.70;99.90;;;;;;4888280;29;20208;-81
2021/12/11 06:37:09;;;;;;;1.03;0.53;;;2.80;99.90;;;;;;4885282;29;20232;-81
2021/12/11 06:39:36;;;;;;;1.00;0.97;;;2.80;99.90;;;;;;4890067;29;20187;-81
2021/12/11 06:42:06;;;;;;;0.67;0.57;;;2.80;99.90;;;;;;4883204;29;20544;-81
2021/12/11 06:44:32;;;;;;;0.20;0.20;;;2.80;99.90;;;;;;4873413;29;20185;-81
2021/12/11 06:47:01;;;;;;;1.03;0.80;;;2.80;99.90;;;;;;4879310;29;20744;-80
2021/12/11 06:49:28;;;;;;;1.43;1.00;;;2.90;99.90;;;;;;4873879;29;20185;-81
2021/12/11 06:51:54;;;;;;;2.30;0.87;;;2.80;99.90;;;;;;4881323;29;20330;-82
2021/12/11 06:54:20;;;;;;;0.30;0.30;;;2.80;99.90;;;;;;4880032;29;20249;-81
2021/12/11 06:56:46;;;;;;;0.40;0.40;;;2.80;99.90;;;;;;4876188;29;20210;-80
2021/12/11 06:59:13;;;;;;;5.90;1.07;;;2.80;99.90;;;;;;4877273;29;20182;-80
2021/12/11 07:01:38;;;;;;;0.40;0.40;;;2.80;99.90;;;;;;4870830;29;20189;-80
2021/12/11 07:04:07;;;;;;;1.03;0.80;;;2.70;99.90;;;;;;4873883;29;20188;-81
2021/12/11 07:06:34;;;;;;;4.00;1.47;;;2.70;99.90;;;;;;4873194;29;20220;-80
2021/12/11 07:09:01;;;;;;;0.73;0.50;;;2.80;99.90;;;;;;4870173;29;20185;-79
2021/12/11 07:11:27;;;;;;;0.27;0.27;;;2.80;99.90;;;;;;4877551;29;20225;-80
2021/12/11 07:13:53;;;;;;;1.30;0.87;;;2.80;99.90;;;;;;4878692;29;20200;-80
2021/12/11 07:16:19;;;;;;;0.57;0.57;;;2.80;99.90;;;;;;4866522;29;20222;-80
2021/12/11 07:18:45;;;;;;;0.93;0.50;;;2.80;99.90;;;;;;4872609;29;20215;-80
2021/12/11 07:21:11;;;;;;;1.67;1.43;;;2.80;99.90;;;;;;4873560;29;20715;-80
2021/12/11 07:23:41;;;;;;;0.63;0.43;;;2.70;99.90;;;;;;4865962;29;20211;-80
2021/12/11 07:26:15;;;;;;;1.83;1.70;;;2.70;99.90;;;;;;4876254;29;20219;-80
2021/12/11 07:28:48;;;;;;;0.70;0.70;;;2.80;99.90;;;;;;4877797;29;20214;-80
2021/12/11 07:31:14;;;;;;;1.27;0.83;;;2.80;99.90;;;;;;4873901;29;20201;-80
2021/12/11 07:33:41;;;;;;;0.83;0.57;;;2.90;99.90;;;;;;4873419;29;20185;-80
2021/12/11 07:36:07;;;;;;;1.70;0.60;;;2.90;99.90;;;;;;4874648;29;20226;-80
2021/12/11 07:38:32;;;;;;;0.77;0.77;;;2.80;99.90;;;;;;4875146;29;20199;-80
2021/12/11 07:41:01;;;;;;;0.60;0.60;;;2.70;99.90;;;;;;4873249;29;20191;-80
2021/12/11 07:43:28;;;;;;;0.73;0.73;;;2.70;99.90;;;;;;4871557;29;20660;-79
2021/12/11 07:45:55;;;;;;;1.87;1.13;;;2.70;99.90;;;;;;4866480;29;20193;-80
2021/12/11 07:48:21;;;;;;;0.73;0.73;;;2.70;99.90;;;;;;4876877;29;20189;-80
2021/12/11 07:50:46;;;;;;;1.20;0.73;;;2.80;99.90;;;;;;4870786;29;20194;-81
2021/12/11 07:53:13;;;;;;;0.50;0.50;;;2.80;99.90;;;;;;4876196;29;20566;-80
2021/12/11 07:55:40;;;;;;;0.73;0.73;;;3.00;99.90;;;;;;4875142;29;20207;-84
2021/12/11 07:58:06;;;;;;;1.70;0.70;;;3.00;99.90;;;;;;4880099;29;20205;-80
2021/12/11 08:00:36;;;;;;;0.47;0.47;;;3.00;99.90;;;;;;4873536;29;20924;-80
2021/12/11 08:03:03;;;;;;;2.10;1.43;;;3.20;99.90;;;;;;4875312;29;20184;-78
2021/12/11 08:05:29;;;;;;;0.63;0.63;;;3.30;99.90;;;;;;4872556;29;20202;-79
2021/12/11 08:08:00;;;;;;;0.57;0.57;;;3.40;99.90;;;;;;4871117;29;20217;-81
2021/12/11 08:10:29;;;;;;;0.50;0.50;;;3.40;99.90;;;;;;4869322;29;20282;-80
2021/12/11 08:12:54;;;;;;;1.60;0.60;;;3.50;99.90;;;;;;4868458;29;20189;-80
2021/12/11 08:15:20;;;;;;;0.20;0.20;;;3.60;99.90;;;;;;4876463;29;20223;-79
2021/12/11 08:17:52;;;;;;;2.13;1.33;;;3.60;99.90;;;;;;4870495;29;20328;-80
2021/12/11 08:20:21;;;;;;;0.23;0.23;;;3.60;99.90;;;;;;4874179;29;20221;-81
2021/12/11 08:22:46;;;;;;;2.00;1.13;;;3.80;99.90;;;;;;4867716;29;20243;-79
2021/12/11 08:25:13;;;;;;;1.10;0.60;;;3.90;99.90;;;;;;4873428;29;20182;-79
2021/12/11 08:27:39;;;;;;;1.30;1.30;;;4.00;99.90;;;;;;4876844;29;20205;-80
2021/12/11 08:30:07;;;;;;;0.53;0.40;;;4.20;99.90;;;;;;4873601;29;20179;-80
2021/12/11 08:32:33;;;;;;;0.93;0.93;;;4.20;99.90;;;;;;4876737;29;20201;-80
2021/12/11 08:34:59;;;;;;;0.67;0.67;;;4.40;99.90;;;;;;4870684;29;20573;-79
2021/12/11 08:37:25;;;;;;;0.97;0.87;;;4.40;99.90;;;;;;4866853;29;20199;-80
2021/12/11 08:39:52;;;;;;;0.67;0.63;;;4.50;99.90;;;;;;4875564;29;20664;-80
2021/12/11 08:42:21;;;;;;;0.70;0.70;;;4.50;99.90;;;;;;4873524;29;20264;-80
2021/12/11 08:44:53;;;;;;;1.87;0.60;;;4.60;99.90;;;;;;4870356;29;20611;-80
2021/12/11 08:47:22;;;;;;;1.07;0.93;;;4.70;99.90;;;;;;4877118;29;20229;-79
2021/12/11 08:49:50;;;;;;;0.43;0.43;;;4.70;99.90;;;;;;4871541;29;20189;-80
2021/12/11 08:52:37;;;;;;;0.60;0.53;;;4.80;99.90;;;;;;4871903;29;20221;-79
2021/12/11 08:55:06;;;;;;;0.50;0.50;;;5.00;99.90;;;;;;4874507;29;20256;-80
2021/12/11 08:57:36;;;;;;;1.10;0.77;;;5.20;99.90;;;;;;4871052;29;20397;-80
2021/12/11 09:00:09;;;;;;;5.13;1.60;;;5.50;99.90;;;;;;4874469;29;20623;-80
2021/12/11 09:02:41;;;;;;;1.70;1.03;;;5.80;99.90;;;;;;4872003;29;20198;-80
2021/12/11 09:05:25;;;;;;;0.40;0.40;;;5.70;99.90;;;;;;4877097;29;20668;-80
2021/12/11 09:07:58;;;;;;;1.70;0.83;;;5.70;99.90;;;;;;4880747;29;20214;-80
2021/12/11 09:10:31;;;;;;;1.37;0.63;;;5.60;99.90;;;;;;4878005;29;20189;-80
2021/12/11 09:13:09;;;;;;;1.07;1.07;;;5.60;99.90;;;;;;4874935;29;20287;-80
2021/12/11 09:15:39;;;;;;;1.07;0.70;;;5.50;99.90;;;;;;4874258;29;20736;-80
2021/12/11 09:18:13;;;;;;;0.40;0.33;;;5.50;99.90;;;;;;4878097;29;20208;-80
2021/12/11 09:20:54;;;;;;;0.83;0.83;;;5.70;99.90;;;;;;4871863;29;20275;-80
2021/12/11 09:23:31;;;;;;;0.80;0.77;;;5.80;99.90;;;;;;4876774;29;20183;-80
2021/12/11 09:26:08;;;;;;;0.60;0.60;;;5.80;99.90;;;;;;4871493;29;20733;-80
2021/12/11 09:28:40;;;;;;;1.13;0.80;;;5.80;99.90;;;;;;4872512;29;20191;-79
2021/12/11 09:31:32;;;;;;;0.43;0.43;;;5.80;99.90;;;;;;4869047;29;20253;-80
2021/12/11 09:34:07;;;;;;;0.73;0.73;;;5.80;99.90;;;;;;4876574;29;20289;-80
2021/12/11 09:36:37;;;;;;;0.93;0.93;;;5.80;99.90;;;;;;4879399;29;20250;-81
2021/12/11 09:39:20;;;;;;;1.23;0.90;;;5.80;99.90;;;;;;4879181;29;20200;-81
2021/12/11 09:41:45;;;;;;;3.33;1.23;;;5.90;99.90;;;;;;4875476;29;20183;-81
2021/12/11 09:44:29;;;;;;;1.37;1.27;;;6.10;99.90;;;;;;4870275;29;20194;-82
2021/12/11 09:47:06;;;;;;;5.93;1.50;;;6.00;99.90;;;;;;4874598;29;20212;-82
2021/12/11 09:49:37;;;;;;;0.83;0.77;;;6.00;99.90;;;;;;4877846;29;20646;-81
2021/12/11 09:52:18;;;;;;;5.00;1.30;;;6.10;99.90;;;;;;4871735;29;20558;-81
2021/12/11 09:54:49;;;;;;;1.23;1.00;;;6.20;99.90;;;;;;4873950;29;20202;-82
2021/12/11 09:57:18;;;;;;;0.60;0.60;;;6.30;99.90;;;;;;4877562;29;20241;-81
2021/12/11 09:59:46;;;;;;;1.50;0.87;;;6.40;99.90;;;;;;4877948;29;20198;-81
2021/12/11 10:02:20;;;;;;;0.57;0.57;;;6.30;99.90;;;;;;4874057;29;20670;-80
2021/12/11 10:05:28;;;;;;;1.27;0.73;;;6.50;99.90;;;;;;4880091;29;20195;-81
2021/12/11 10:08:13;;;;;;;0.40;0.40;;;6.60;99.90;;;;;;4879757;29;20203;-81
2021/12/11 10:10:39;;;;;;;1.53;1.43;;;6.70;99.90;;;;;;4873955;29;20213;-81
2021/12/11 10:13:04;;;;;;;0.43;0.33;;;6.70;99.90;;;;;;4876973;29;20263;-81
2021/12/11 10:15:34;;;;;;;0.97;0.97;;;6.80;99.90;;;;;;4877565;29;20299;-81
2021/12/11 10:18:13;;;;;;;2.87;0.77;;;6.90;99.90;;;;;;4870652;29;20215;-81
2021/12/11 10:20:50;;;;;;;0.30;0.30;;;7.00;99.90;;;;;;4871151;29;20551;-81
2021/12/11 10:23:22;;;;;;;0.40;0.40;;;6.60;99.90;;;;;;4868586;29;20262;-82
2021/12/11 10:25:50;;;;;;;0.50;0.50;;;6.60;99.90;;;;;;4877317;29;20657;-80
2021/12/11 10:28:19;;;;;;;0.53;0.53;;;6.70;99.90;;;;;;4879964;29;20196;-81
2021/12/11 10:30:52;;;;;;;0.80;0.80;;;6.60;99.90;;;;;;4871476;29;20188;-81
2021/12/11 10:33:20;;;;;;;0.77;0.77;;;6.60;99.90;;;;;;4879011;29;20188;-82
2021/12/11 10:35:50;;;;;;;1.40;0.90;;;6.90;99.90;;;;;;4873463;29;20347;-80
2021/12/11 10:38:16;;;;;;;2.20;0.50;;;7.00;99.90;;;;;;4875263;29;20339;-80
2021/12/11 10:40:46;;;;;;;1.20;0.80;;;7.10;99.90;;;;;;4863542;29;20278;-80
2021/12/11 10:43:23;;;;;;;0.70;0.70;;;6.90;99.90;;;;;;4875253;29;20555;-79
2021/12/11 10:45:50;;;;;;;0.47;0.37;;;7.00;99.90;;;;;;4864475;29;20185;-80
2021/12/11 10:48:23;;;;;;;2.87;0.40;;;7.10;99.90;;;;;;4868136;29;20188;-80
2021/12/11 10:50:55;;;;;;;2.37;0.93;;;7.20;99.90;;;;;;4870356;29;20188;-80
2021/12/11 10:53:23;;;;;;;1.20;1.13;;;7.30;99.90;;;;;;4863254;29;20659;-80
2021/12/11 10:55:51;;;;;;;0.60;0.60;;;7.40;99.90;;;;;;4866444;29;20203;-81
2021/12/11 10:58:22;;;;;;;0.70;0.70;;;7.40;99.90;;;;;;4872305;29;20246;-81
2021/12/11 11:00:59;;;;;;;0.37;0.37;;;7.30;99.90;;;;;;4870578;29;20184;-81
2021/12/11 11:03:27;;;;;;;2.27;0.83;;;7.50;99.90;;;;;;4874818;29;20542;-81
2021/12/11 11:05:53;;;;;;;1.60;0.77;;;7.60;99.90;;;;;;4876667;29;20257;-81
2021/12/11 11:08:19;;;;;;;0.67;0.67;;;7.80;99.90;;;;;;4872423;29;20195;-81
2021/12/11 11:10:52;;;;;;;0.40;0.40;;;7.90;99.90;;;;;;4875409;29;20308;-81
2021/12/11 11:13:19;;;;;;;1.57;1.00;;;7.80;99.90;;;;;;4870899;29;20668;-82
2021/12/11 11:15:46;;;;;;;5.00;1.17;;;7.80;99.90;;;;;;4872434;29;20207;-81
2021/12/11 11:18:15;;;;;;;3.33;2.73;;;8.00;99.90;;;;;;4875454;29;20196;-82
2021/12/11 11:20:50;;;;;;;1.10;1.10;;;7.90;99.90;;;;;;4873335;29;20705;-81
2021/12/11 11:23:16;;;;;;;1.53;1.20;;;8.20;99.90;;;;;;4873926;29;20186;-81
2021/12/11 11:25:46;;;;;;;0.83;0.80;;;8.10;99.90;;;;;;4870770;29;20191;-81
2021/12/11 11:28:16;;;;;;;1.03;0.93;;;8.20;99.90;;;;;;4874725;29;20188;-82
2021/12/11 11:30:53;;;;;;;1.10;0.97;;;8.10;99.90;;;;;;4874003;29;20180;-81
2021/12/11 11:33:20;;;;;;;0.43;0.33;;;7.90;99.90;;;;;;4875929;29;20194;-81
2021/12/11 11:35:47;;;;;;;2.60;1.80;;;7.80;99.90;;;;;;4878584;29;20196;-81
2021/12/11 11:38:19;;;;;;;0.50;0.50;;;7.80;99.90;;;;;;4873385;29;20180;-81
2021/12/11 11:40:49;;;;;;;1.70;0.87;;;7.70;99.90;;;;;;4878212;29;20185;-82
2021/12/11 11:43:16;;;;;;;0.97;0.90;;;7.60;99.90;;;;;;4871781;29;20188;-81
2021/12/11 11:45:42;;;;;;;3.30;1.17;;;7.60;99.90;;;;;;4872122;29;20225;-81
2021/12/11 11:48:09;;;;;;;0.33;0.33;;;7.60;99.90;;;;;;4876692;29;20179;-81
2021/12/11 11:50:40;;;;;;;3.17;1.30;;;7.40;99.90;;;;;;4879852;29;20197;-81
2021/12/11 11:53:08;;;;;;;0.30;0.30;;;7.30;99.90;;;;;;4879217;29;20194;-82
2021/12/11 11:55:41;;;;;;;1.17;1.03;;;7.10;99.90;;;;;;4881280;29;20225;-81
2021/12/11 11:58:07;;;;;;;0.80;0.80;;;7.00;99.90;;;;;;4880124;29;20185;-80
2021/12/11 12:00:41;;;;;;;2.63;0.40;;;6.90;99.90;;;;;;4877220;29;20240;-81
2021/12/11 12:03:08;;;;;;;1.20;1.10;;;6.80;99.90;;;;;;4873670;29;20180;-81
2021/12/11 12:05:36;;;;;;;0.97;0.80;;;6.70;99.90;;;;;;4874334;29;20194;-80
2021/12/11 12:08:08;;;;;;;0.20;0.20;;;6.70;99.90;;;;;;4875621;29;20225;-80
2021/12/11 12:10:34;;;;;;;0.70;0.70;;;6.70;99.90;;;;;;4865363;29;20193;-80
2021/12/11 12:13:00;;;;;;;0.17;0.17;;;6.70;99.90;;;;;;4869625;29;20198;-80
2021/12/11 12:15:33;;;;;;;0.50;0.50;;;6.80;99.90;;;;;;4870636;29;20276;-80
2021/12/11 12:17:58;;;;;;;0.20;0.20;;;6.70;99.90;;;;;;4877547;29;20646;-80
2021/12/11 12:20:26;;;;;;;0.53;0.53;;;6.70;99.90;;;;;;4871571;29;20254;-80
2021/12/11 12:22:54;;;;;;;1.20;1.10;;;6.50;99.90;;;;;;4871263;29;20180;-80
2021/12/11 12:25:20;;;;;;;0.10;0.10;;;6.40;99.90;;;;;;4876761;29;20285;-80
2021/12/11 12:27:48;;;;;;;1.40;0.87;;;6.30;99.90;;;;;;4878242;29;20207;-80
2021/12/11 12:30:23;;;;;;;0.60;0.60;;;6.30;99.90;;;;;;4870088;29;20214;-80
2021/12/11 12:32:52;;;;;;;0.60;0.60;;;6.30;99.90;;;;;;4873025;29;20190;-80
2021/12/11 12:35:18;;;;;;;0.57;0.30;;;6.20;99.90;;;;;;4874063;29;20253;-80
2021/12/11 12:37:45;;;;;;;5.50;0.80;;;6.30;99.90;;;;;;4870565;29;20298;-79
2021/12/11 12:40:22;;;;;;;2.47;0.97;;;6.20;99.90;;;;;;4870491;29;20187;-79
2021/12/11 12:42:54;;;;;;;0.70;0.70;;;6.20;99.90;;;;;;4875264;29;20186;-79
2021/12/11 12:45:34;;;;;;;1.70;0.93;;;6.20;99.90;;;;;;4875096;29;20186;-78
2021/12/11 12:48:05;;;;;;;0.20;0.20;;;6.10;99.90;;;;;;4878042;29;20233;-80
2021/12/11 12:50:45;;;;;;;0.60;0.60;;;6.10;99.90;;;;;;4876186;29;20659;-79
2021/12/11 12:53:12;;;;;;;3.97;0.90;;;6.10;99.90;;;;;;4875505;29;20272;-80
2021/12/11 12:55:47;;;;;;;0.20;0.20;;;6.10;99.90;;;;;;4876570;29;20270;-81
2021/12/11 12:58:18;;;;;;;0.70;0.70;;;6.00;99.90;;;;;;4877771;29;20524;-81
2021/12/11 13:00:44;;;;;;;0.20;0.20;;;6.10;99.90;;;;;;4877530;29;20195;-81
2021/12/11 13:03:18;;;;;;;1.70;0.97;;;6.00;99.90;;;;;;4875972;29;20190;-81
2021/12/11 13:05:52;;;;;;;0.43;0.43;;;6.00;99.90;;;;;;4871880;29;20205;-81
2021/12/11 13:08:25;;;;;;;0.70;0.70;;;6.10;99.90;;;;;;4871341;29;20225;-81
2021/12/11 13:11:03;;;;;;;1.70;0.20;;;6.10;99.90;;;;;;4875771;29;20182;-81
2021/12/11 13:13:29;;;;;;;0.90;0.90;;;6.10;99.90;;;;;;4898873;29;20191;-81
2021/12/11 13:16:13;;;;;;;1.20;0.63;;;6.10;99.90;;;;;;4868963;29;20192;-81
2021/12/11 13:18:44;;;;;;;1.27;1.03;;;6.10;99.90;;;;;;4877080;29;20218;-81
2021/12/11 13:21:52;;;;;;;0.70;0.70;;;6.00;99.90;;;;;;4879955;29;20171;-81
2021/12/11 13:24:19;;;;;;;2.17;1.97;;;6.00;99.90;;;;;;4891349;29;20275;-81
2021/12/11 13:26:50;;;;;;;0.30;0.30;;;6.10;99.90;;;;;;4889915;29;20230;-81